Time;durP1;ratioP1;P1;durP2;ratioP2;P2;SDS_P1;SDS_P2;PMS_P1;PMS_P2;Temp;Humidity;BMP_temperature;BMP_pressure;BME280_temperature;BME280_humidity;BME280_pressure;Samples;Min_cycle;Max_cycle;Signal;HPM_P1;HPM_P2
2021/11/26 00:00:28;;;;;;;33.58;15.65;;;5.50;99.90;;;;;;5053950;28;20028;-86
2021/11/26 00:02:53;;;;;;;35.70;16.42;;;5.60;99.90;;;;;;5048748;28;20108;-86
2021/11/26 00:05:19;;;;;;;40.67;14.38;;;5.60;99.90;;;;;;5053631;28;20093;-85
2021/11/26 00:07:45;;;;;;;38.22;17.27;;;5.60;99.90;;;;;;5053698;28;20032;-86
2021/11/26 00:10:11;;;;;;;27.15;13.75;;;5.60;99.90;;;;;;5053285;28;20033;-85
2021/11/26 00:12:37;;;;;;;32.55;14.02;;;5.60;99.90;;;;;;5053346;28;20017;-86
2021/11/26 00:17:34;;;;;;;27.90;15.15;;;5.60;99.90;;;;;;5052219;28;20033;-84
2021/11/26 00:20:00;;;;;;;27.02;13.95;;;5.70;99.90;;;;;;5052927;28;20101;-85
2021/11/26 00:22:25;;;;;;;27.35;15.60;;;5.70;99.90;;;;;;5046073;28;20497;-85
2021/11/26 00:24:53;;;;;;;29.20;15.35;;;5.60;99.90;;;;;;5050549;28;20025;-85
2021/11/26 00:27:19;;;;;;;39.10;16.42;;;5.60;99.90;;;;;;5052792;28;20040;-84
2021/11/26 00:29:45;;;;;;;31.33;14.95;;;5.60;99.90;;;;;;5052829;28;20116;-85
2021/11/26 00:32:11;;;;;;;30.20;14.43;;;5.70;99.90;;;;;;5047944;28;20112;-84
2021/11/26 00:34:37;;;;;;;29.25;15.02;;;5.70;99.90;;;;;;5053263;28;20550;-85
2021/11/26 00:37:03;;;;;;;34.72;13.32;;;5.70;99.90;;;;;;5051532;28;20021;-85
2021/11/26 00:39:29;;;;;;;35.67;14.40;;;5.70;99.90;;;;;;5052804;28;20051;-84
2021/11/26 00:41:55;;;;;;;25.40;13.65;;;5.70;99.90;;;;;;5052067;28;20024;-85
2021/11/26 00:44:20;;;;;;;26.10;15.07;;;5.70;99.90;;;;;;5040318;28;20033;-85
2021/11/26 00:46:47;;;;;;;30.98;14.45;;;5.70;99.90;;;;;;5043911;28;20088;-85
2021/11/26 00:49:13;;;;;;;31.45;15.80;;;5.70;99.90;;;;;;5052247;28;20044;-85
2021/11/26 00:51:39;;;;;;;31.45;15.48;;;5.70;99.90;;;;;;5052311;28;20029;-84
2021/11/26 00:54:05;;;;;;;29.98;15.20;;;5.70;99.90;;;;;;5045529;28;20025;-84
2021/11/26 00:56:32;;;;;;;28.58;15.77;;;5.80;99.90;;;;;;5041925;28;20029;-84
2021/11/26 00:58:57;;;;;;;28.20;13.80;;;5.80;99.90;;;;;;5052608;28;20116;-84
2021/11/26 01:01:23;;;;;;;38.55;15.52;;;5.70;99.90;;;;;;5051609;28;20112;-84
2021/11/26 01:03:48;;;;;;;26.80;12.65;;;5.80;99.90;;;;;;5051933;28;20107;-84
2021/11/26 01:06:15;;;;;;;32.00;13.32;;;5.80;99.90;;;;;;5052291;28;20029;-84
2021/11/26 01:08:41;;;;;;;27.30;12.55;;;5.90;99.90;;;;;;5051025;28;20041;-84
2021/11/26 01:11:07;;;;;;;36.08;16.08;;;5.80;99.90;;;;;;5051868;28;20096;-84
2021/11/26 01:13:33;;;;;;;30.15;15.38;;;5.80;99.90;;;;;;5050451;28;20017;-77
2021/11/26 01:15:59;;;;;;;31.15;14.57;;;5.80;99.90;;;;;;5051370;28;20029;-83
2021/11/26 01:18:25;;;;;;;27.75;14.80;;;5.80;99.90;;;;;;5049497;28;20047;-84
2021/11/26 01:20:50;;;;;;;25.67;12.52;;;5.90;99.90;;;;;;5052323;28;20029;-83
2021/11/26 01:23:16;;;;;;;31.75;12.95;;;5.90;99.90;;;;;;5052432;28;20025;-84
2021/11/26 01:25:42;;;;;;;28.35;13.65;;;5.90;99.90;;;;;;5051700;28;20050;-84
2021/11/26 01:28:09;;;;;;;29.10;13.57;;;5.90;99.90;;;;;;5051611;28;20075;-84
2021/11/26 01:30:48;;;;;;;26.27;13.48;;;5.90;99.90;;;;;;5052323;28;20017;-84
2021/11/26 01:33:16;;;;;;;33.83;16.33;;;6.00;99.90;;;;;;5052449;28;20047;-83
2021/11/26 01:35:42;;;;;;;20.85;12.00;;;5.90;99.90;;;;;;5052206;28;20021;-84
2021/11/26 01:38:09;;;;;;;39.55;15.82;;;6.00;99.90;;;;;;5051996;28;20086;-84
2021/11/26 01:40:39;;;;;;;31.27;13.13;;;6.00;99.90;;;;;;5050318;28;20381;-83
2021/11/26 01:43:08;;;;;;;36.30;14.00;;;5.90;99.90;;;;;;5052173;28;20025;-84
2021/11/26 01:45:46;;;;;;;33.63;13.57;;;5.90;99.90;;;;;;5051773;28;20043;-83
2021/11/26 01:48:12;;;;;;;31.33;14.05;;;6.00;99.90;;;;;;5052139;28;20028;-84
2021/11/26 01:50:39;;;;;;;30.55;12.75;;;5.90;99.90;;;;;;5052080;28;20037;-83
2021/11/26 01:53:05;;;;;;;37.88;14.88;;;5.90;99.90;;;;;;5051090;28;20033;-81
2021/11/26 01:55:32;;;;;;;35.13;13.68;;;6.00;99.90;;;;;;5051288;28;20029;-82
2021/11/26 01:57:59;;;;;;;33.13;13.75;;;6.00;99.90;;;;;;5050794;28;20032;-82
2021/11/26 02:00:29;;;;;;;41.50;14.73;;;6.10;99.90;;;;;;5051711;28;20031;-82
2021/11/26 02:02:55;;;;;;;51.20;15.45;;;6.10;99.90;;;;;;5052273;28;20115;-81
2021/11/26 02:05:21;;;;;;;48.83;16.75;;;6.10;99.90;;;;;;5054528;28;20063;-81
2021/11/26 02:07:46;;;;;;;45.85;18.23;;;6.10;99.90;;;;;;5035392;28;20428;-81
2021/11/26 02:10:12;;;;;;;37.60;17.10;;;6.10;99.90;;;;;;5038295;28;20029;-82
2021/11/26 02:12:38;;;;;;;39.53;16.08;;;6.20;99.90;;;;;;5052263;28;20028;-81
2021/11/26 02:15:05;;;;;;;46.85;16.85;;;6.20;99.90;;;;;;5055293;28;20447;-81
2021/11/26 02:17:31;;;;;;;41.08;15.73;;;6.20;99.90;;;;;;5055229;28;20488;-81
2021/11/26 02:19:58;;;;;;;39.53;15.73;;;6.20;99.90;;;;;;5050202;28;20025;-81
2021/11/26 02:22:24;;;;;;;38.97;15.30;;;6.30;99.90;;;;;;5054823;28;20465;-81
2021/11/26 02:24:50;;;;;;;37.58;15.50;;;6.30;99.90;;;;;;5054960;28;20032;-82
2021/11/26 02:27:17;;;;;;;50.25;17.55;;;6.30;99.90;;;;;;5054029;28;20531;-81
2021/11/26 02:29:44;;;;;;;43.38;18.00;;;6.30;99.90;;;;;;5048777;28;20025;-79
2021/11/26 02:32:09;;;;;;;43.97;17.42;;;6.30;99.90;;;;;;5053804;28;20500;-82
2021/11/26 02:34:35;;;;;;;39.63;16.92;;;6.30;99.90;;;;;;5044545;28;20029;-81
2021/11/26 02:37:01;;;;;;;50.95;16.38;;;6.30;99.90;;;;;;5048308;28;20531;-80
2021/11/26 02:39:26;;;;;;;46.67;15.35;;;6.40;99.90;;;;;;5055060;28;20070;-80
2021/11/26 02:41:52;;;;;;;40.65;15.55;;;6.30;99.90;;;;;;5054407;28;20466;-80
2021/11/26 02:44:18;;;;;;;43.63;16.45;;;6.40;99.90;;;;;;5054988;28;20031;-81
2021/11/26 02:46:45;;;;;;;43.83;15.75;;;6.40;99.90;;;;;;5054508;28;20036;-81
2021/11/26 02:49:11;;;;;;;49.67;16.52;;;6.40;99.90;;;;;;5044945;28;20034;-81
2021/11/26 02:51:36;;;;;;;41.72;14.98;;;6.40;99.90;;;;;;5053106;28;20031;-81
2021/11/26 02:54:02;;;;;;;48.45;18.83;;;6.40;99.90;;;;;;5054496;28;20025;-81
2021/11/26 02:56:28;;;;;;;47.85;16.95;;;6.40;99.90;;;;;;5054505;28;20044;-81
2021/11/26 02:58:56;;;;;;;44.00;16.30;;;6.40;99.90;;;;;;5054522;28;20024;-81
2021/11/26 03:01:22;;;;;;;43.35;15.57;;;6.40;99.90;;;;;;5054319;28;20025;-80
2021/11/26 03:03:48;;;;;;;33.30;13.05;;;6.30;99.90;;;;;;5052928;28;20048;-81
2021/11/26 03:06:13;;;;;;;41.20;15.27;;;6.40;99.90;;;;;;5054032;28;20386;-81
2021/11/26 03:08:39;;;;;;;43.22;15.75;;;6.40;99.90;;;;;;5054120;28;20021;-81
2021/11/26 03:11:05;;;;;;;33.50;14.10;;;6.40;99.90;;;;;;5054110;28;20028;-83
2021/11/26 03:13:31;;;;;;;41.92;14.68;;;6.40;99.90;;;;;;5054069;28;20074;-81
2021/11/26 03:15:57;;;;;;;43.45;15.55;;;6.40;99.90;;;;;;5054171;28;20469;-81
2021/11/26 03:18:26;;;;;;;35.70;13.98;;;6.40;99.90;;;;;;5054076;28;20025;-81
2021/11/26 03:20:52;;;;;;;36.53;13.52;;;6.50;99.90;;;;;;5053481;28;20090;-81
2021/11/26 03:23:19;;;;;;;38.53;14.07;;;6.50;99.90;;;;;;5054059;28;20029;-80
2021/11/26 03:25:45;;;;;;;36.03;14.15;;;6.50;99.90;;;;;;5037184;28;20080;-81
2021/11/26 03:28:12;;;;;;;38.80;14.95;;;6.50;99.90;;;;;;5034218;28;20029;-81
2021/11/26 03:30:38;;;;;;;46.50;16.02;;;6.50;99.90;;;;;;5043870;28;20029;-81
2021/11/26 03:33:04;;;;;;;39.80;15.00;;;6.50;99.90;;;;;;5053686;28;20029;-81
2021/11/26 03:35:30;;;;;;;47.75;17.38;;;6.50;99.90;;;;;;5052583;28;20029;-81
2021/11/26 03:37:57;;;;;;;46.28;18.15;;;6.50;99.90;;;;;;5052348;28;20369;-81
2021/11/26 03:40:23;;;;;;;38.22;18.08;;;6.50;99.90;;;;;;5052512;28;20112;-81
2021/11/26 03:42:50;;;;;;;40.20;17.75;;;6.50;99.90;;;;;;5045381;28;20481;-80
2021/11/26 03:45:18;;;;;;;40.25;17.90;;;6.50;99.90;;;;;;5049259;28;20485;-81
2021/11/26 03:47:44;;;;;;;50.35;19.60;;;6.60;99.90;;;;;;5053651;28;20025;-81
2021/11/26 03:50:10;;;;;;;46.30;17.90;;;6.60;99.90;;;;;;5053579;28;20024;-81
2021/11/26 03:52:38;;;;;;;45.08;18.65;;;6.70;99.90;;;;;;5053557;28;20092;-80
2021/11/26 03:55:05;;;;;;;50.03;20.75;;;6.70;99.90;;;;;;5053297;28;20036;-81
2021/11/26 03:57:30;;;;;;;39.30;18.23;;;6.70;99.90;;;;;;5047033;28;20029;-81
2021/11/26 03:59:56;;;;;;;55.13;20.60;;;6.70;99.90;;;;;;5048169;28;20024;-81
2021/11/26 04:02:22;;;;;;;50.58;20.75;;;6.70;99.90;;;;;;5041587;28;20040;-81
2021/11/26 04:04:48;;;;;;;54.42;19.77;;;6.70;99.90;;;;;;5051924;28;20499;-81
2021/11/26 04:07:13;;;;;;;46.05;18.80;;;6.70;99.90;;;;;;5052900;28;20028;-81
2021/11/26 04:09:39;;;;;;;51.72;17.48;;;6.70;99.90;;;;;;5052718;28;20500;-81
2021/11/26 04:12:06;;;;;;;48.00;17.55;;;6.60;99.90;;;;;;5046459;28;20104;-81
2021/11/26 04:14:31;;;;;;;43.78;15.82;;;6.70;99.90;;;;;;5052942;28;20021;-81
2021/11/26 04:16:57;;;;;;;54.30;18.67;;;6.60;99.90;;;;;;5051454;28;20024;-81
2021/11/26 04:19:23;;;;;;;31.52;15.48;;;6.60;99.90;;;;;;5049209;28;20491;-81
2021/11/26 04:21:48;;;;;;;46.33;16.85;;;6.60;99.90;;;;;;5053274;28;20393;-81
2021/11/26 04:24:14;;;;;;;41.70;15.40;;;6.70;99.90;;;;;;5052894;28;20505;-81
2021/11/26 04:26:40;;;;;;;36.95;14.85;;;6.60;99.90;;;;;;5052922;28;20029;-81
2021/11/26 04:29:05;;;;;;;34.05;15.80;;;6.60;99.90;;;;;;5052230;28;20029;-82
2021/11/26 04:31:31;;;;;;;48.33;17.15;;;6.60;99.90;;;;;;5045310;28;20600;-81
2021/11/26 04:33:57;;;;;;;42.80;15.90;;;6.50;99.90;;;;;;5049770;28;20044;-82
2021/11/26 04:36:23;;;;;;;33.05;14.70;;;6.50;99.90;;;;;;5054483;28;20028;-79
2021/11/26 04:38:49;;;;;;;37.22;13.65;;;6.60;99.90;;;;;;5052582;28;20044;-81
2021/11/26 04:41:15;;;;;;;30.15;13.00;;;6.60;99.90;;;;;;5052565;28;20078;-81
2021/11/26 04:43:41;;;;;;;38.40;15.07;;;6.60;99.90;;;;;;5052471;28;20098;-81
2021/11/26 04:46:06;;;;;;;30.15;13.15;;;6.50;99.90;;;;;;5051863;28;20025;-81
2021/11/26 04:48:32;;;;;;;36.53;14.13;;;6.50;99.90;;;;;;5052191;28;20029;-79
2021/11/26 04:50:58;;;;;;;33.00;14.13;;;6.60;99.90;;;;;;5052626;28;20239;-82
2021/11/26 04:53:24;;;;;;;29.10;12.60;;;6.60;99.90;;;;;;5051053;28;20032;-79
2021/11/26 04:55:50;;;;;;;33.70;13.90;;;6.60;99.90;;;;;;5052241;28;20085;-81
2021/11/26 04:58:16;;;;;;;38.92;14.20;;;6.60;99.90;;;;;;5052318;28;20021;-80
2021/11/26 05:00:42;;;;;;;26.88;12.10;;;6.50;99.90;;;;;;5052021;28;20024;-81
2021/11/26 05:03:07;;;;;;;31.88;13.23;;;6.50;99.90;;;;;;5050686;28;20516;-81
2021/11/26 05:05:33;;;;;;;23.23;11.02;;;6.50;99.90;;;;;;5050766;28;20071;-81
2021/11/26 05:07:59;;;;;;;26.75;12.80;;;6.50;99.90;;;;;;5052561;28;20032;-81
2021/11/26 05:10:25;;;;;;;32.72;11.88;;;6.50;99.90;;;;;;5051414;28;20367;-81
2021/11/26 05:12:56;;;;;;;27.83;11.77;;;6.60;99.90;;;;;;5052381;28;20444;-81
2021/11/26 05:15:26;;;;;;;27.48;11.32;;;6.60;99.90;;;;;;5051943;28;20024;-81
2021/11/26 05:17:54;;;;;;;26.65;10.80;;;6.50;99.90;;;;;;5052136;28;20017;-81
2021/11/26 05:20:21;;;;;;;30.17;11.48;;;6.50;99.90;;;;;;5050585;28;20523;-80
2021/11/26 05:22:48;;;;;;;27.10;11.82;;;6.50;99.90;;;;;;5047300;28;20354;-81
2021/11/26 05:25:14;;;;;;;31.38;12.50;;;6.50;99.90;;;;;;5050707;28;20124;-81
2021/11/26 05:27:40;;;;;;;26.38;12.23;;;6.50;99.90;;;;;;5048980;28;20034;-81
2021/11/26 05:30:07;;;;;;;26.00;11.95;;;6.50;99.90;;;;;;5052071;28;20036;-81
2021/11/26 05:32:33;;;;;;;36.97;12.85;;;6.60;99.90;;;;;;5051040;28;20029;-82
2021/11/26 05:34:58;;;;;;;31.67;11.75;;;6.60;99.90;;;;;;5051351;28;20040;-80
2021/11/26 05:37:24;;;;;;;27.17;11.27;;;6.60;99.90;;;;;;5051751;28;20032;-81
2021/11/26 05:39:50;;;;;;;37.13;11.40;;;6.60;99.90;;;;;;5051771;28;20052;-81
2021/11/26 05:42:16;;;;;;;30.67;10.90;;;6.60;99.90;;;;;;5052064;28;20099;-81
2021/11/26 05:44:42;;;;;;;28.00;11.13;;;6.60;99.90;;;;;;5048330;28;20413;-81
2021/11/26 05:47:08;;;;;;;29.90;11.38;;;6.70;99.90;;;;;;5051668;28;20064;-81
2021/11/26 05:49:34;;;;;;;28.00;11.30;;;6.70;99.90;;;;;;5055335;28;20055;-81
2021/11/26 05:51:59;;;;;;;30.75;11.45;;;6.60;99.90;;;;;;5055873;28;20021;-81
2021/11/26 05:54:25;;;;;;;31.98;13.15;;;6.60;99.90;;;;;;5055740;28;20027;-80
2021/11/26 05:56:51;;;;;;;40.05;14.32;;;6.60;99.90;;;;;;5050624;28;20396;-82
2021/11/26 05:59:17;;;;;;;30.75;13.57;;;6.50;99.90;;;;;;5047795;28;20021;-82
2021/11/26 06:01:43;;;;;;;52.25;26.20;;;6.50;99.90;;;;;;5047563;28;20427;-81
2021/11/26 06:04:09;;;;;;;36.13;16.30;;;6.60;99.90;;;;;;5047154;28;20033;-81
2021/11/26 06:06:35;;;;;;;38.70;16.00;;;6.60;99.90;;;;;;5048174;28;20026;-81
2021/11/26 06:09:00;;;;;;;47.13;17.05;;;6.50;99.90;;;;;;5045713;28;20462;-81
2021/11/26 06:11:26;;;;;;;47.97;18.08;;;6.50;99.90;;;;;;5047841;28;20053;-82
2021/11/26 06:13:52;;;;;;;43.97;18.08;;;6.50;99.90;;;;;;5046073;28;20028;-82
2021/11/26 06:16:17;;;;;;;47.05;19.85;;;6.40;99.90;;;;;;5043789;28;20025;-81
2021/11/26 06:18:43;;;;;;;55.25;19.98;;;6.40;99.90;;;;;;5043108;28;20903;-81
2021/11/26 06:21:09;;;;;;;54.58;20.42;;;6.40;99.90;;;;;;5045886;28;20025;-81
2021/11/26 06:23:34;;;;;;;50.75;19.85;;;6.50;99.90;;;;;;5045492;28;20024;-81
2021/11/26 06:26:00;;;;;;;59.47;22.52;;;6.40;99.90;;;;;;5048276;28;20100;-82
2021/11/26 06:28:26;;;;;;;51.58;20.33;;;6.40;99.90;;;;;;5045023;28;20030;-81
2021/11/26 06:30:51;;;;;;;53.15;20.83;;;6.40;99.90;;;;;;5045784;28;20430;-82
2021/11/26 06:33:17;;;;;;;59.08;18.48;;;6.30;99.90;;;;;;5047536;28;20053;-82
2021/11/26 06:35:44;;;;;;;46.70;18.98;;;6.20;99.90;;;;;;5047101;28;20443;-82
2021/11/26 06:38:09;;;;;;;52.95;18.40;;;6.20;99.90;;;;;;5045900;28;20021;-82
2021/11/26 06:40:35;;;;;;;49.70;16.17;;;6.20;99.90;;;;;;5045322;28;20076;-81
2021/11/26 06:43:01;;;;;;;43.80;16.90;;;6.20;99.90;;;;;;5047499;28;20020;-82
2021/11/26 06:45:27;;;;;;;44.40;14.82;;;6.30;99.90;;;;;;5047757;28;20029;-81
2021/11/26 06:47:52;;;;;;;39.15;14.50;;;6.20;99.90;;;;;;5045295;28;20014;-82
2021/11/26 06:50:19;;;;;;;33.20;13.48;;;6.20;99.90;;;;;;5048733;28;20068;-83
2021/11/26 06:52:46;;;;;;;36.80;13.15;;;6.30;99.90;;;;;;5043750;28;20021;-83
2021/11/26 06:55:12;;;;;;;48.40;15.57;;;6.20;99.90;;;;;;5045105;28;20057;-82
2021/11/26 06:57:39;;;;;;;45.97;12.75;;;6.20;99.90;;;;;;5049435;28;20049;-82
2021/11/26 07:00:14;;;;;;;50.13;13.32;;;6.20;99.90;;;;;;5049428;28;20478;-82
2021/11/26 07:02:39;;;;;;;40.58;12.57;;;6.20;99.90;;;;;;5049043;28;20139;-78
2021/11/26 07:05:06;;;;;;;38.45;11.00;;;6.20;99.90;;;;;;5056871;28;20497;-82
2021/11/26 07:07:32;;;;;;;43.70;12.77;;;6.20;99.90;;;;;;5053900;28;20021;-80
2021/11/26 07:09:58;;;;;;;29.55;10.60;;;6.20;99.90;;;;;;5053857;28;20056;-82
2021/11/26 07:12:24;;;;;;;42.50;11.82;;;6.20;99.90;;;;;;5046144;28;20108;-81
2021/11/26 07:14:50;;;;;;;27.33;11.75;;;6.20;99.90;;;;;;5044179;28;20029;-80
2021/11/26 07:17:16;;;;;;;28.25;10.40;;;6.20;99.90;;;;;;5044998;28;20017;-81
2021/11/26 07:19:46;;;;;;;37.92;11.15;;;6.30;99.90;;;;;;5047160;28;20516;-81
2021/11/26 07:22:12;;;;;;;32.55;10.30;;;6.20;99.90;;;;;;5044152;28;20048;-81
2021/11/26 07:24:38;;;;;;;32.30;11.55;;;6.20;99.90;;;;;;5041548;28;20022;-80
2021/11/26 07:27:04;;;;;;;32.10;11.70;;;6.20;99.90;;;;;;5041268;28;20044;-81
2021/11/26 07:29:30;;;;;;;36.03;12.32;;;6.20;99.90;;;;;;5043352;28;20041;-81
2021/11/26 07:31:55;;;;;;;34.97;12.18;;;6.20;99.90;;;;;;5042179;28;20170;-79
2021/11/26 07:34:21;;;;;;;44.05;12.10;;;6.20;99.90;;;;;;5045092;28;20022;-82
2021/11/26 07:36:47;;;;;;;35.30;11.20;;;6.10;99.90;;;;;;5036243;28;20033;-82
2021/11/26 07:39:13;;;;;;;36.25;11.98;;;6.10;99.90;;;;;;5040495;28;20378;-79
2021/11/26 07:41:39;;;;;;;32.65;10.73;;;6.10;99.90;;;;;;5043671;28;20033;-79
2021/11/26 07:44:05;;;;;;;28.45;10.27;;;6.10;99.90;;;;;;5038876;28;20362;-80
2021/11/26 07:46:31;;;;;;;31.60;11.02;;;6.20;99.90;;;;;;5043509;28;20457;-81
2021/11/26 07:48:57;;;;;;;35.60;11.70;;;6.10;99.90;;;;;;5043118;28;20028;-79
2021/11/26 07:51:23;;;;;;;26.10;10.90;;;6.00;99.90;;;;;;5043385;28;20028;-79
2021/11/26 07:53:49;;;;;;;35.05;12.05;;;6.00;99.90;;;;;;5041858;28;20025;-80
2021/11/26 07:56:15;;;;;;;39.88;13.63;;;6.10;99.90;;;;;;5043168;28;20064;-84
2021/11/26 07:58:40;;;;;;;32.92;11.95;;;6.10;99.90;;;;;;5042842;28;20025;-84
2021/11/26 08:01:06;;;;;;;33.00;11.13;;;6.00;99.90;;;;;;5038709;28;20059;-84
2021/11/26 08:03:32;;;;;;;30.60;10.68;;;6.00;99.90;;;;;;5042507;28;20491;-83
2021/11/26 08:05:59;;;;;;;37.60;12.05;;;6.00;99.90;;;;;;5041168;28;20819;-84
2021/11/26 08:08:25;;;;;;;40.33;12.32;;;6.00;99.90;;;;;;5042428;28;20028;-83
2021/11/26 08:10:52;;;;;;;39.97;12.43;;;6.00;99.90;;;;;;5041194;28;20040;-82
2021/11/26 08:13:18;;;;;;;35.17;12.20;;;6.00;99.90;;;;;;5039743;28;20027;-81
2021/11/26 08:15:43;;;;;;;29.08;13.65;;;6.10;99.90;;;;;;5042873;28;20017;-82
2021/11/26 08:18:09;;;;;;;29.08;13.00;;;6.00;99.90;;;;;;5043334;28;20028;-83
2021/11/26 08:20:37;;;;;;;30.20;13.25;;;6.10;99.90;;;;;;5044589;28;20034;-83
2021/11/26 08:23:04;;;;;;;36.28;14.55;;;6.00;99.90;;;;;;5039974;28;20035;-82
2021/11/26 08:25:30;;;;;;;38.20;13.80;;;6.00;99.90;;;;;;5042337;28;20017;-81
2021/11/26 08:27:56;;;;;;;34.00;14.10;;;6.00;99.90;;;;;;5042261;28;20016;-78
2021/11/26 08:30:23;;;;;;;35.72;14.60;;;6.00;99.90;;;;;;5041525;28;20041;-80
2021/11/26 08:32:52;;;;;;;39.58;13.27;;;6.00;99.90;;;;;;5044843;28;20033;-78
2021/11/26 08:35:17;;;;;;;33.22;14.07;;;6.00;99.90;;;;;;5041402;28;20546;-81
2021/11/26 08:37:43;;;;;;;30.45;13.85;;;6.00;99.90;;;;;;5041091;28;20025;-80
2021/11/26 08:40:10;;;;;;;36.90;14.95;;;6.10;99.90;;;;;;5040005;28;20021;-80
2021/11/26 08:42:36;;;;;;;35.03;14.65;;;6.00;99.90;;;;;;5041235;28;20585;-81
2021/11/26 08:45:03;;;;;;;38.63;15.57;;;6.00;99.90;;;;;;5041610;28;20028;-83
2021/11/26 08:47:29;;;;;;;37.72;14.80;;;6.10;99.90;;;;;;5049400;28;20385;-82
2021/11/26 08:49:55;;;;;;;39.75;15.90;;;6.20;99.90;;;;;;5046534;28;20037;-81
2021/11/26 08:52:21;;;;;;;35.58;15.73;;;6.10;99.90;;;;;;5043077;28;20462;-80
2021/11/26 08:54:47;;;;;;;42.00;14.52;;;6.10;99.90;;;;;;5043013;28;20061;-84
2021/11/26 08:57:15;;;;;;;47.95;13.48;;;6.10;99.90;;;;;;5050110;28;20103;-82
2021/11/26 08:59:41;;;;;;;39.25;13.63;;;6.00;99.90;;;;;;5051497;28;20039;-82
2021/11/26 09:02:09;;;;;;;34.50;13.63;;;6.00;99.90;;;;;;5045560;28;20104;-82
2021/11/26 09:04:34;;;;;;;36.05;15.55;;;6.00;99.90;;;;;;5042099;28;20114;-82
2021/11/26 09:07:00;;;;;;;37.47;14.02;;;6.10;99.90;;;;;;5051119;28;20486;-81
2021/11/26 09:09:26;;;;;;;37.70;14.40;;;5.90;99.90;;;;;;5049847;28;20390;-82
2021/11/26 09:11:53;;;;;;;37.25;14.65;;;5.90;99.90;;;;;;5038256;28;20028;-79
2021/11/26 09:14:19;;;;;;;40.05;15.30;;;6.00;99.90;;;;;;5042467;28;20021;-76
2021/11/26 09:16:45;;;;;;;35.22;14.85;;;6.00;99.90;;;;;;5051790;28;20021;-76
2021/11/26 09:19:11;;;;;;;46.00;14.38;;;6.00;99.90;;;;;;5051403;28;20025;-76
2021/11/26 09:21:37;;;;;;;35.78;15.80;;;5.90;99.90;;;;;;5051427;28;20140;-76
2021/11/26 09:24:02;;;;;;;39.70;14.52;;;5.90;99.90;;;;;;5046077;28;20556;-75
2021/11/26 09:26:29;;;;;;;42.55;13.77;;;6.00;99.90;;;;;;5055744;28;20493;-76
2021/11/26 09:28:55;;;;;;;31.77;13.40;;;5.90;99.90;;;;;;5056352;28;20412;-76
2021/11/26 09:31:21;;;;;;;31.98;13.07;;;6.00;99.90;;;;;;5040676;28;20087;-76
2021/11/26 09:33:49;;;;;;;39.30;12.75;;;6.00;99.90;;;;;;5054304;28;20032;-76
2021/11/26 09:36:15;;;;;;;34.60;13.20;;;6.10;99.90;;;;;;5055292;28;20079;-76
2021/11/26 09:38:42;;;;;;;37.10;12.32;;;6.10;99.90;;;;;;5055664;28;20025;-76
2021/11/26 09:41:11;;;;;;;42.58;18.05;;;6.20;99.90;;;;;;5053485;28;20052;-76
2021/11/26 09:43:37;;;;;;;26.83;11.75;;;6.10;99.90;;;;;;5054753;28;20070;-76
2021/11/26 09:46:05;;;;;;;28.40;12.95;;;6.10;99.90;;;;;;5054741;28;20025;-76
2021/11/26 09:48:33;;;;;;;33.00;11.65;;;6.20;99.90;;;;;;5055139;28;20496;-77
2021/11/26 09:51:00;;;;;;;28.67;11.98;;;6.20;99.90;;;;;;5055305;28;20082;-77
2021/11/26 09:53:29;;;;;;;33.17;11.02;;;6.10;99.90;;;;;;5055169;28;20025;-76
2021/11/26 09:56:01;;;;;;;31.58;11.05;;;6.10;99.90;;;;;;5055021;28;20033;-77
2021/11/26 09:58:29;;;;;;;28.17;9.85;;;6.10;99.90;;;;;;5047173;28;20028;-77
2021/11/26 10:00:56;;;;;;;29.13;9.98;;;6.00;99.90;;;;;;5050623;28;20032;-77
2021/11/26 10:03:23;;;;;;;34.30;10.90;;;6.10;99.90;;;;;;5054378;28;20082;-77
2021/11/26 10:05:49;;;;;;;38.75;11.93;;;6.10;99.90;;;;;;5054064;28;20032;-77
2021/11/26 10:08:23;;;;;;;26.48;9.63;;;6.10;99.90;;;;;;5050159;28;20017;-77
2021/11/26 10:10:48;;;;;;;30.58;10.68;;;6.00;99.90;;;;;;5054084;28;20053;-77
2021/11/26 10:13:19;;;;;;;33.60;11.15;;;6.10;99.90;;;;;;5054823;28;20363;-76
2021/11/26 10:15:47;;;;;;;31.38;10.27;;;6.10;99.90;;;;;;5054456;28;20029;-76
2021/11/26 10:18:23;;;;;;;27.40;10.35;;;6.20;99.90;;;;;;5054921;28;20531;-75
2021/11/26 10:20:58;;;;;;;27.88;10.45;;;6.20;99.90;;;;;;5053983;28;20033;-76
2021/11/26 10:23:27;;;;;;;25.45;9.90;;;6.30;99.90;;;;;;5040270;28;20028;-76
2021/11/26 10:25:53;;;;;;;24.30;8.65;;;6.30;99.90;;;;;;5053952;28;20469;-79
2021/11/26 10:28:21;;;;;;;24.23;9.43;;;6.20;99.90;;;;;;5049666;28;20116;-79
2021/11/26 10:30:48;;;;;;;28.10;8.45;;;6.20;99.90;;;;;;5045342;28;20039;-82
2021/11/26 10:33:25;;;;;;;25.60;8.00;;;6.20;99.90;;;;;;5045722;28;20033;-79
2021/11/26 10:36:00;;;;;;;24.10;8.20;;;6.30;99.90;;;;;;5052233;28;20024;-82
2021/11/26 10:38:33;;;;;;;21.98;8.70;;;6.30;99.90;;;;;;5052646;28;20040;-84
2021/11/26 10:41:31;;;;;;;21.77;7.35;;;6.30;99.90;;;;;;5053235;28;20029;-80
2021/11/26 10:44:06;;;;;;;17.08;6.88;;;6.40;99.90;;;;;;5048638;28;20033;-84
2021/11/26 10:49:18;;;;;;;37.50;9.07;;;6.20;99.90;;;;;;5051338;28;20033;-80
2021/11/26 10:59:34;;;;;;;22.25;6.47;;;6.20;99.90;;;;;;5050470;28;20033;-79
2021/11/26 11:02:00;;;;;;;19.50;6.00;;;6.10;99.90;;;;;;5052900;28;20036;-77
2021/11/26 11:04:27;;;;;;;14.80;5.38;;;6.20;99.90;;;;;;5050320;28;20021;-79
2021/11/26 11:07:07;;;;;;;14.10;5.90;;;6.30;99.90;;;;;;5048589;28;20056;-77
2021/11/26 11:09:44;;;;;;;18.38;6.43;;;6.30;99.90;;;;;;5049343;28;20081;-80
2021/11/26 11:12:11;;;;;;;21.73;5.88;;;6.30;99.90;;;;;;5044598;28;20025;-78
2021/11/26 11:14:38;;;;;;;17.25;5.65;;;6.30;99.90;;;;;;5046351;28;20017;-78
2021/11/26 11:17:04;;;;;;;23.60;6.43;;;6.40;99.90;;;;;;5050820;28;20109;-78
2021/11/26 11:19:30;;;;;;;22.98;5.70;;;6.40;99.90;;;;;;5051846;28;20025;-78
2021/11/26 11:21:57;;;;;;;16.95;6.20;;;6.40;99.90;;;;;;5046092;28;20094;-79
2021/11/26 11:24:25;;;;;;;22.55;7.03;;;6.40;99.90;;;;;;5050948;28;20466;-79
2021/11/26 11:26:51;;;;;;;16.85;5.03;;;6.40;99.90;;;;;;5049778;28;20034;-80
2021/11/26 11:29:24;;;;;;;13.27;5.45;;;6.30;99.90;;;;;;5047893;28;20055;-77
2021/11/26 11:31:51;;;;;;;13.50;4.90;;;6.30;99.90;;;;;;5038859;28;20069;-81
2021/11/26 11:34:21;;;;;;;10.60;5.22;;;6.30;99.90;;;;;;5051911;28;20104;-77
2021/11/26 11:36:47;;;;;;;12.80;5.30;;;6.40;99.90;;;;;;5051985;28;20025;-80
2021/11/26 11:39:13;;;;;;;10.02;4.38;;;6.30;99.90;;;;;;5051339;28;20048;-81
2021/11/26 11:41:54;;;;;;;23.23;5.05;;;6.30;99.90;;;;;;5050733;28;20067;-78
2021/11/26 11:44:28;;;;;;;17.50;5.13;;;6.30;99.90;;;;;;5051113;28;20111;-80
2021/11/26 11:47:00;;;;;;;18.48;5.05;;;6.30;99.90;;;;;;5051888;28;20056;-80
2021/11/26 11:49:33;;;;;;;16.90;5.97;;;6.30;99.90;;;;;;5048785;28;20041;-79
2021/11/26 11:52:00;;;;;;;;;;;6.40;99.90;;;;;;5051029;28;20021;-77
2021/11/26 11:54:49;;;;;;;19.70;6.40;;;6.30;99.90;;;;;;5051097;28;20385;-79
2021/11/26 11:57:28;;;;;;;14.48;5.93;;;6.30;99.90;;;;;;5051246;28;20064;-83
2021/11/26 12:00:16;;;;;;;15.90;5.65;;;6.30;99.90;;;;;;5050209;28;20029;-78
2021/11/26 12:02:43;;;;;;;17.92;5.53;;;6.40;99.90;;;;;;5051699;28;20040;-78
2021/11/26 12:05:20;;;;;;;15.23;5.07;;;6.40;99.90;;;;;;5046933;28;20428;-78
2021/11/26 12:07:46;;;;;;;14.27;4.78;;;6.30;99.90;;;;;;5051770;28;20021;-75
2021/11/26 12:10:13;;;;;;;16.67;5.82;;;6.30;99.90;;;;;;5052053;28;20389;-84
2021/11/26 12:12:51;;;;;;;19.60;6.05;;;6.40;99.90;;;;;;5051299;28;20111;-76
2021/11/26 12:15:29;;;;;;;24.55;7.43;;;6.30;99.90;;;;;;5051541;28;20029;-78
2021/11/26 12:18:04;;;;;;;19.70;6.40;;;6.30;99.90;;;;;;5049806;28;20025;-78
2021/11/26 12:20:30;;;;;;;18.13;5.93;;;6.30;99.90;;;;;;5043645;28;20025;-77
2021/11/26 12:23:02;;;;;;;22.98;6.47;;;6.30;99.90;;;;;;5052793;28;20040;-78
2021/11/26 12:25:44;;;;;;;15.25;6.05;;;6.30;99.90;;;;;;5051828;28;20029;-75
2021/11/26 12:28:19;;;;;;;19.92;6.20;;;6.30;99.90;;;;;;5051298;28;20033;-79
2021/11/26 12:30:57;;;;;;;35.38;15.60;;;6.30;99.90;;;;;;5047890;28;20238;-78
2021/11/26 12:33:25;;;;;;;20.67;6.75;;;6.40;99.90;;;;;;5050254;28;20108;-81
2021/11/26 12:36:20;;;;;;;25.13;7.28;;;6.40;99.90;;;;;;5052901;28;20100;-86
2021/11/26 12:38:52;;;;;;;20.02;6.68;;;6.30;99.90;;;;;;5045781;28;20540;-86
2021/11/26 12:41:38;;;;;;;22.45;10.98;;;6.30;99.90;;;;;;5051752;28;20108;-88
2021/11/26 12:44:05;;;;;;;15.50;7.38;;;6.40;99.90;;;;;;5048842;28;20017;-82
2021/11/26 12:46:32;;;;;;;19.95;7.38;;;6.40;99.90;;;;;;5042776;28;20032;-82
2021/11/26 12:52:09;;;;;;;18.35;7.30;;;6.30;99.90;;;;;;5039904;28;20029;-78
2021/11/26 12:54:42;;;;;;;19.42;7.47;;;6.30;99.90;;;;;;5048862;28;20029;-81